createdAt,value
2019-01-04T00:04:07.901Z,9.17
2019-01-04T00:06:33.931Z,8.17
2019-01-04T00:08:59.918Z,7.43
2019-01-04T00:11:25.922Z,7.83
2019-01-04T00:13:51.967Z,8.33
2019-01-04T00:16:18.005Z,8.17
2019-01-04T00:18:44.032Z,9.93
2019-01-04T00:21:10.017Z,9.90
2019-01-04T00:23:36.056Z,8.63
2019-01-04T00:26:02.046Z,10.60
2019-01-04T00:28:28.121Z,10.10
2019-01-04T00:30:54.124Z,12.10
2019-01-04T00:33:20.168Z,7.93
2019-01-04T00:35:46.161Z,7.63
2019-01-04T00:38:12.185Z,11.67
2019-01-04T00:40:58.085Z,8.83
2019-01-04T00:43:24.137Z,13.00
2019-01-04T00:45:50.183Z,9.90
2019-01-04T00:50:48.711Z,8.10
2019-01-04T00:53:14.704Z,10.37
2019-01-04T00:56:22.349Z,11.07
2019-01-04T00:59:28.096Z,9.03
2019-01-04T01:02:33.898Z,9.93
2019-01-04T01:08:53.634Z,11.53
2019-01-04T01:11:59.438Z,11.17
2019-01-04T01:15:07.122Z,11.80
2019-01-04T01:21:26.184Z,15.40
2019-01-04T01:24:31.976Z,11.03
2019-01-04T01:27:37.729Z,10.90
2019-01-04T01:30:43.519Z,11.97
2019-01-04T01:36:50.401Z,11.07
2019-01-04T01:39:58.077Z,15.23
2019-01-04T01:54:39.924Z,14.97
2019-01-04T01:57:05.932Z,13.67
2019-01-04T01:59:31.929Z,13.67
2019-01-04T02:01:57.975Z,15.77
2019-01-04T02:04:23.961Z,18.07
2019-01-04T02:06:49.951Z,17.33
2019-01-04T02:09:15.981Z,17.47
2019-01-04T02:11:42.005Z,15.40
2019-01-04T02:14:08.007Z,19.87
2019-01-04T02:16:33.992Z,15.47
2019-01-04T02:19:00.023Z,16.17
2019-01-04T02:21:26.018Z,15.40
2019-01-04T02:23:52.046Z,16.37
2019-01-04T02:26:18.087Z,17.00
2019-01-04T02:29:04.126Z,18.97
2019-01-04T02:31:30.117Z,15.97
2019-01-04T02:33:56.151Z,17.43
2019-01-04T02:36:22.212Z,19.30
2019-01-04T02:38:48.191Z,18.73
2019-01-04T02:41:14.204Z,17.97
2019-01-04T02:43:40.629Z,15.53
2019-01-04T02:46:08.300Z,15.73
2019-01-04T02:48:34.331Z,17.90
2019-01-04T02:51:00.323Z,16.03
2019-01-04T02:53:26.356Z,16.43
2019-01-04T02:55:52.362Z,17.43
2019-01-04T02:58:18.382Z,18.40
2019-01-04T03:00:44.384Z,18.30
2019-01-04T03:03:10.413Z,16.83
2019-01-04T03:05:36.404Z,16.33
2019-01-04T03:08:02.436Z,16.23
2019-01-04T03:10:28.466Z,16.60
2019-01-04T03:12:54.444Z,17.17
2019-01-04T03:15:20.496Z,16.73
2019-01-04T03:17:46.569Z,15.27
2019-01-04T03:20:12.593Z,15.77
2019-01-04T03:22:38.722Z,15.47
2019-01-04T03:25:04.721Z,17.03
2019-01-04T03:27:30.717Z,16.40
2019-01-04T03:29:56.775Z,16.30
2019-01-04T03:32:22.727Z,15.57
2019-01-04T03:34:48.762Z,14.10
2019-01-04T03:37:14.795Z,14.57
2019-01-04T03:39:40.785Z,16.77
2019-01-04T03:42:06.807Z,16.87
2019-01-04T03:44:32.799Z,16.07
2019-01-04T03:46:58.863Z,16.47
2019-01-04T03:49:24.853Z,14.50
2019-01-04T03:51:50.872Z,14.70
2019-01-04T03:54:16.911Z,14.43
2019-01-04T03:56:42.897Z,14.70
2019-01-04T03:59:08.913Z,13.93
2019-01-04T04:01:34.898Z,14.57
2019-01-04T04:04:00.925Z,13.97
2019-01-04T04:06:26.921Z,16.47
2019-01-04T04:08:52.960Z,14.03
2019-01-04T04:11:18.962Z,14.40
2019-01-04T04:13:44.991Z,17.27
2019-01-04T04:16:10.984Z,13.87
2019-01-04T04:18:37.056Z,16.03
2019-01-04T04:21:03.040Z,14.27
2019-01-04T04:23:29.080Z,15.03
2019-01-04T04:25:57.164Z,16.97
2019-01-04T04:28:23.133Z,16.20
2019-01-04T04:30:49.199Z,17.33
2019-01-04T04:33:15.180Z,14.83
2019-01-04T04:35:41.221Z,14.77
2019-01-04T04:38:07.210Z,14.87
2019-01-04T04:40:33.258Z,17.00
2019-01-04T04:42:59.237Z,12.27
2019-01-04T04:45:25.287Z,18.43
2019-01-04T04:47:51.266Z,17.60
2019-01-04T04:50:17.309Z,15.47
2019-01-04T04:52:43.415Z,13.73
2019-01-04T04:55:09.363Z,14.90
2019-01-04T04:57:35.361Z,14.53
2019-01-04T05:00:01.379Z,13.27
2019-01-04T05:02:27.377Z,12.17
2019-01-04T05:04:53.335Z,12.90
2019-01-04T05:07:19.411Z,13.97
2019-01-04T05:09:45.411Z,14.73
2019-01-04T05:12:11.414Z,12.13
2019-01-04T05:14:37.439Z,11.37
2019-01-04T05:17:03.462Z,14.23
2019-01-04T05:19:29.544Z,12.93
2019-01-04T05:21:55.551Z,16.70
2019-01-04T05:24:21.545Z,12.10
2019-01-04T05:26:47.573Z,14.10
2019-01-04T05:29:13.565Z,17.93
2019-01-04T05:31:39.593Z,12.30
2019-01-04T05:34:05.585Z,14.50
2019-01-04T05:36:31.635Z,12.20
2019-01-04T05:38:57.617Z,16.23
2019-01-04T05:41:23.647Z,12.27
2019-01-04T05:43:49.645Z,11.80
2019-01-04T05:46:15.678Z,11.13
2019-01-04T05:48:41.678Z,12.07
2019-01-04T05:51:07.696Z,12.53
2019-01-04T05:53:33.681Z,16.70
2019-01-04T05:55:59.696Z,12.77
2019-01-04T05:58:25.682Z,12.10
2019-01-04T06:00:51.682Z,13.27
2019-01-04T06:03:17.711Z,16.87
2019-01-04T06:05:43.727Z,15.77
2019-01-04T06:08:09.747Z,11.03
2019-01-04T06:10:35.728Z,9.87
2019-01-04T06:13:01.766Z,12.57
2019-01-04T06:15:27.765Z,16.30
2019-01-04T06:17:53.798Z,18.77
2019-01-04T06:20:19.833Z,10.90
2019-01-04T06:22:45.889Z,11.27
2019-01-04T06:25:11.888Z,10.63
2019-01-04T06:27:37.913Z,12.13
2019-01-04T06:33:17.479Z,15.67
2019-01-04T06:35:43.483Z,16.17
2019-01-04T06:38:09.517Z,14.00
2019-01-04T06:40:35.549Z,11.27
2019-01-04T06:43:01.581Z,13.80
2019-01-04T06:45:27.615Z,14.13
2019-01-04T06:47:53.635Z,17.17
2019-01-04T06:50:19.665Z,15.53
2019-01-04T06:52:45.653Z,16.23
2019-01-04T06:55:51.896Z,16.00
2019-01-04T06:58:17.933Z,13.17
2019-01-04T07:00:43.975Z,13.93
2019-01-04T07:03:09.971Z,14.23
2019-01-04T07:08:21.459Z,14.27
2019-01-04T07:10:47.452Z,13.97
2019-01-04T07:13:13.513Z,12.93
2019-01-04T07:15:39.490Z,12.87
2019-01-04T07:18:05.502Z,13.67
2019-01-04T07:20:31.496Z,16.67
2019-01-04T07:22:57.536Z,14.00
2019-01-04T07:25:23.534Z,13.17
2019-01-04T07:27:49.562Z,13.83
2019-01-04T07:30:15.624Z,13.67
2019-01-04T07:32:41.610Z,18.23
2019-01-04T07:35:07.674Z,16.97
2019-01-04T07:37:33.660Z,17.23
2019-01-04T07:39:59.716Z,16.20
2019-01-04T07:42:25.738Z,15.03
2019-01-04T07:44:51.763Z,13.33
2019-01-04T07:47:17.788Z,19.07
2019-01-04T07:49:43.827Z,14.70
2019-01-04T07:52:09.819Z,19.00
2019-01-04T07:54:35.826Z,11.43
2019-01-04T07:57:01.852Z,12.67
2019-01-04T07:59:27.845Z,13.63
2019-01-04T08:01:53.883Z,11.87
2019-01-04T08:04:19.877Z,14.37
2019-01-04T08:06:45.920Z,12.27
2019-01-04T08:09:11.955Z,15.13
2019-01-04T08:11:37.990Z,11.50
2019-01-04T08:14:03.975Z,13.63
2019-01-04T08:16:30.015Z,16.17
2019-01-04T08:18:56.011Z,11.93
2019-01-04T08:21:22.047Z,10.57
2019-01-04T08:23:48.061Z,13.60
2019-01-04T08:26:14.057Z,14.20
2019-01-04T08:28:40.098Z,13.47
2019-01-04T08:31:06.092Z,11.67
2019-01-04T08:33:32.122Z,12.73
2019-01-04T08:35:58.119Z,10.87
2019-01-04T08:38:24.150Z,13.87
2019-01-04T08:41:10.140Z,11.93
2019-01-04T08:43:36.195Z,12.50
2019-01-04T08:46:02.186Z,13.60
2019-01-04T08:49:09.844Z,16.50
2019-01-04T08:51:35.870Z,13.83
2019-01-04T08:54:21.856Z,14.93
2019-01-04T08:56:47.884Z,14.40
2019-01-04T08:59:13.921Z,13.10
2019-01-04T09:01:39.930Z,13.37
2019-01-04T09:04:05.954Z,15.73
2019-01-04T09:06:31.939Z,11.67
2019-01-04T09:08:57.969Z,10.80
2019-01-04T09:11:23.966Z,12.10
2019-01-04T09:13:50.006Z,12.60
2019-01-04T09:16:15.990Z,12.33
2019-01-04T09:18:42.012Z,11.63
2019-01-04T09:21:08.049Z,11.03
2019-01-04T09:26:05.832Z,15.10
2019-01-04T09:28:31.856Z,13.73
2019-01-04T09:30:57.901Z,13.67
2019-01-04T09:33:23.947Z,14.73
2019-01-04T09:35:49.947Z,14.17
2019-01-04T09:38:15.979Z,17.27
2019-01-04T09:40:41.963Z,14.50
2019-01-04T09:43:07.993Z,14.27
2019-01-04T09:45:33.999Z,16.20
2019-01-04T09:48:00.031Z,16.33
2019-01-04T09:50:26.033Z,14.00
2019-01-04T09:52:52.062Z,14.77
2019-01-04T09:55:18.062Z,15.50
2019-01-04T09:57:44.082Z,14.67
2019-01-04T10:00:10.212Z,14.87
2019-01-04T10:02:36.247Z,14.43
2019-01-04T10:05:43.901Z,13.90
2019-01-04T10:08:09.965Z,15.30
2019-01-04T10:10:35.957Z,14.97
2019-01-04T10:13:01.988Z,16.00
2019-01-04T10:15:28.004Z,15.50
2019-01-04T10:17:53.996Z,14.73
2019-01-04T10:20:20.033Z,13.90
2019-01-04T10:23:06.036Z,15.17
2019-01-04T10:25:32.102Z,15.47
2019-01-04T10:27:58.090Z,15.00
2019-01-04T10:31:05.787Z,15.87
2019-01-04T10:33:31.804Z,13.87
2019-01-04T10:35:57.820Z,14.30
2019-01-04T10:38:23.822Z,14.53
2019-01-04T10:40:49.853Z,13.80
2019-01-04T10:43:15.859Z,15.97
2019-01-04T10:45:41.884Z,16.20
2019-01-04T10:48:07.874Z,17.93
2019-01-04T10:50:33.895Z,18.07
2019-01-04T10:52:59.894Z,18.33
2019-01-04T10:55:25.904Z,18.20
2019-01-04T10:57:51.946Z,17.33
2019-01-04T11:00:18.049Z,17.57
2019-01-04T11:02:44.074Z,18.87
2019-01-04T11:05:10.076Z,18.20
2019-01-04T11:07:36.109Z,16.60
2019-01-04T11:10:43.723Z,16.73
2019-01-04T11:13:09.793Z,14.30
2019-01-04T11:18:21.426Z,14.10
2019-01-04T11:20:47.453Z,12.60
2019-01-04T11:23:53.239Z,11.73
2019-01-04T11:45:15.770Z,11.03
2019-01-04T11:48:23.472Z,11.17
2019-01-04T11:57:03.626Z,12.17
2019-01-04T11:59:29.616Z,11.07
2019-01-04T12:01:55.646Z,11.17
2019-01-04T12:04:21.677Z,12.47
2019-01-04T12:06:47.690Z,11.37
2019-01-04T12:09:13.728Z,10.70
2019-01-04T12:11:39.768Z,11.57
2019-01-04T12:14:05.753Z,11.93
2019-01-04T12:16:31.764Z,14.57
2019-01-04T12:18:57.769Z,11.73
2019-01-04T12:21:23.805Z,16.10
2019-01-04T12:23:49.798Z,13.17
2019-01-04T12:26:15.798Z,14.40
2019-01-04T12:28:41.834Z,13.03
2019-01-04T12:31:07.898Z,12.33
2019-01-04T12:33:33.901Z,12.80
2019-01-04T12:35:59.904Z,12.47
2019-01-04T12:38:25.928Z,12.77
2019-01-04T12:40:51.929Z,14.23
2019-01-04T12:43:17.966Z,13.47
2019-01-04T12:45:43.955Z,12.40
2019-01-04T12:48:09.999Z,16.30
2019-01-04T12:50:36.012Z,14.13
2019-01-04T12:53:02.024Z,13.33
2019-01-04T12:55:28.061Z,15.67
2019-01-04T12:57:54.091Z,14.43
2019-01-04T13:00:20.121Z,15.07
2019-01-04T13:02:46.138Z,13.90
2019-01-04T13:05:12.171Z,13.33
2019-01-04T13:07:38.160Z,12.23
2019-01-04T13:10:45.816Z,14.27
2019-01-04T13:13:11.840Z,14.37
2019-01-04T13:15:37.867Z,12.13
2019-01-04T13:18:03.859Z,11.40
2019-01-04T13:20:29.892Z,12.20
2019-01-04T13:22:55.908Z,10.90
2019-01-04T13:25:21.942Z,10.87
2019-01-04T13:27:47.984Z,10.27
2019-01-04T13:30:13.966Z,11.47
2019-01-04T13:32:40.049Z,10.07
2019-01-04T13:35:06.051Z,10.50
2019-01-04T13:37:32.073Z,11.13
2019-01-04T13:39:58.071Z,10.33
2019-01-04T13:42:24.071Z,9.90
2019-01-04T13:44:50.112Z,15.37
2019-01-04T13:47:16.129Z,11.00
2019-01-04T13:49:42.162Z,10.33
2019-01-04T13:52:08.201Z,14.80
2019-01-04T13:54:34.212Z,9.67
2019-01-04T13:57:00.213Z,12.57
2019-01-04T13:59:26.238Z,10.53
2019-01-04T14:01:52.238Z,13.00
2019-01-04T14:04:18.285Z,9.80
2019-01-04T14:06:44.299Z,10.43
2019-01-04T14:09:17.815Z,11.17
2019-01-04T14:11:43.791Z,9.73
2019-01-04T14:14:09.837Z,12.13
2019-01-04T14:16:35.847Z,10.30
2019-01-04T14:19:01.853Z,9.37
2019-01-04T14:21:27.901Z,11.30
2019-01-04T14:23:53.951Z,11.07
2019-01-04T14:26:19.968Z,13.90
2019-01-04T14:28:45.959Z,14.60
2019-01-04T14:31:12.016Z,15.17
2019-01-04T14:33:38.085Z,10.70
2019-01-04T14:36:04.095Z,13.77
2019-01-04T14:38:30.132Z,12.97
2019-01-04T14:40:56.156Z,11.20
2019-01-04T14:43:22.214Z,14.33
2019-01-04T14:45:48.205Z,10.77
2019-01-04T14:48:14.238Z,11.57
2019-01-04T14:50:40.225Z,12.47
2019-01-04T14:53:06.974Z,10.50
2019-01-04T14:55:34.216Z,12.37
2019-01-04T14:58:00.251Z,12.77
2019-01-04T15:00:26.244Z,13.37
2019-01-04T15:02:52.286Z,13.20
2019-01-04T15:05:18.320Z,12.67
2019-01-04T15:07:44.334Z,13.47
2019-01-04T15:10:10.385Z,14.50
2019-01-04T15:12:36.409Z,11.17
2019-01-04T15:15:44.087Z,12.47
2019-01-04T15:18:10.156Z,12.23
2019-01-04T15:20:36.162Z,11.40
2019-01-04T15:23:02.219Z,15.13
2019-01-04T15:25:28.293Z,13.60
2019-01-04T15:27:54.304Z,12.77
2019-01-04T15:30:20.338Z,11.43
2019-01-04T15:32:46.331Z,15.10
2019-01-04T15:35:12.370Z,19.87
2019-01-04T15:37:38.379Z,20.90
2019-01-04T15:40:46.025Z,18.27
2019-01-04T15:43:12.061Z,15.77
2019-01-04T15:45:38.095Z,14.43
2019-01-04T15:48:04.085Z,12.30
2019-01-04T15:50:30.133Z,14.10
2019-01-04T15:52:56.139Z,13.20
2019-01-04T15:58:01.619Z,13.03
2019-01-04T16:00:27.643Z,12.07
2019-01-04T16:02:53.652Z,11.83
2019-01-04T16:05:19.687Z,12.73
2019-01-04T16:07:45.707Z,14.67
2019-01-04T16:10:11.691Z,17.50
2019-01-04T16:12:37.746Z,17.67
2019-01-04T16:15:45.365Z,20.33
2019-01-04T16:18:11.433Z,18.93
2019-01-04T16:20:37.445Z,18.77
2019-01-04T16:23:03.482Z,19.77
2019-01-04T16:25:29.543Z,15.40
2019-01-04T16:27:55.580Z,13.97
2019-01-04T16:30:21.628Z,12.70
2019-01-04T16:32:47.670Z,15.40
2019-01-04T16:35:13.705Z,13.90
2019-01-04T16:37:39.706Z,13.73
2019-01-04T16:40:47.363Z,15.17
2019-01-04T16:43:13.388Z,13.07
2019-01-04T16:48:17.321Z,15.70
2019-01-04T16:50:43.310Z,13.30
2019-01-04T16:53:09.377Z,13.83
2019-01-04T16:55:35.388Z,15.03
2019-01-04T16:58:01.414Z,17.10
2019-01-04T17:00:27.417Z,14.07
2019-01-04T17:02:53.477Z,13.93
2019-01-04T17:05:19.519Z,16.80
2019-01-04T17:07:45.533Z,14.07
2019-01-04T17:10:11.572Z,14.43
2019-01-04T17:12:37.602Z,18.10
2019-01-04T17:15:45.261Z,14.73
2019-01-04T17:18:11.297Z,17.40
2019-01-04T17:20:37.351Z,14.83
2019-01-04T17:23:03.345Z,16.73
2019-01-04T17:25:29.359Z,15.20
2019-01-04T17:27:55.393Z,14.93
2019-01-04T17:30:21.441Z,14.13
2019-01-04T17:32:47.478Z,15.53
2019-01-04T17:35:13.486Z,14.67
2019-01-04T17:37:39.522Z,14.10
2019-01-04T17:43:19.649Z,14.20
2019-01-04T17:45:45.648Z,13.30
2019-01-04T17:48:11.684Z,16.80
2019-01-04T17:50:37.693Z,14.30
2019-01-04T17:53:03.838Z,14.53
2019-01-04T17:55:29.840Z,14.33
2019-01-04T17:57:55.858Z,14.73
2019-01-04T18:03:09.322Z,42.77
2019-01-04T18:05:35.316Z,41.50
2019-01-04T18:08:01.351Z,40.93
2019-01-04T18:10:27.390Z,19.63
2019-01-04T18:12:53.380Z,22.20
2019-01-04T18:15:19.415Z,32.60
2019-01-04T18:17:45.422Z,34.87
2019-01-04T18:20:11.460Z,23.63
2019-01-04T18:22:37.457Z,13.60
2019-01-04T18:25:03.505Z,15.43
2019-01-04T18:27:29.501Z,13.93
2019-01-04T18:29:55.569Z,12.43
2019-01-04T18:32:21.735Z,14.40
2019-01-04T18:34:47.799Z,13.17
2019-01-04T18:37:13.783Z,13.90
2019-01-04T18:39:39.796Z,12.43
2019-01-04T18:42:05.829Z,12.50
2019-01-04T18:44:31.821Z,13.00
2019-01-04T18:46:57.863Z,15.60
2019-01-04T18:49:23.913Z,13.23
2019-01-04T18:51:49.943Z,12.23
2019-01-04T18:54:15.945Z,12.80
2019-01-04T18:56:41.947Z,12.63
2019-01-04T18:59:07.983Z,13.60
2019-01-04T19:01:34.061Z,12.60
2019-01-04T19:04:00.104Z,13.73
2019-01-04T19:06:31.098Z,13.80
2019-01-04T19:08:54.180Z,11.70
2019-01-04T19:13:53.798Z,12.37
2019-01-04T19:16:19.860Z,12.47
2019-01-04T19:18:45.858Z,11.73
2019-01-04T19:21:11.900Z,12.93
2019-01-04T19:23:39.644Z,11.33
2019-01-04T19:26:05.910Z,10.97
2019-01-04T19:28:31.980Z,12.23
2019-01-04T19:30:58.080Z,11.70
2019-01-04T19:33:24.160Z,10.87
2019-01-04T19:35:50.193Z,12.57
2019-01-04T19:38:16.245Z,15.10
2019-01-04T19:40:42.280Z,10.03
2019-01-04T19:43:08.334Z,10.83
2019-01-04T19:45:34.385Z,27.20
2019-01-04T19:48:00.393Z,20.60
2019-01-04T19:50:46.401Z,20.77
2019-01-04T19:53:12.434Z,23.03
2019-01-04T19:55:38.471Z,16.27
2019-01-04T19:58:04.485Z,20.90
2019-01-04T20:00:30.533Z,13.27
2019-01-04T20:02:56.544Z,14.70
2019-01-04T20:06:22.167Z,15.37
2019-01-04T20:09:47.770Z,14.10
2019-01-04T20:13:13.409Z,14.83
2019-01-04T20:21:37.586Z,16.43
2019-01-04T20:24:23.474Z,14.13
2019-01-04T20:27:09.441Z,15.30
2019-01-04T20:29:55.350Z,15.80
2019-01-04T20:32:41.324Z,21.30
2019-01-04T20:35:27.230Z,20.27
2019-01-04T20:38:14.042Z,21.50
2019-01-04T20:40:59.977Z,15.27
2019-01-04T20:46:23.487Z,19.43
2019-01-04T20:49:09.420Z,18.73
2019-01-04T20:54:42.767Z,20.40
2019-01-04T20:57:28.667Z,12.10
2019-01-04T21:00:14.598Z,14.23
2019-01-04T21:05:47.972Z,11.03
2019-01-04T21:08:33.933Z,13.40
2019-01-04T21:11:19.877Z,13.13
2019-01-04T21:14:05.832Z,11.80
2019-01-04T21:16:51.778Z,13.30
2019-01-04T21:19:37.670Z,12.67
2019-01-04T21:22:24.286Z,13.47
2019-01-04T21:30:31.348Z,12.50
2019-01-04T21:33:17.329Z,11.60
2019-01-04T21:36:03.269Z,11.47
2019-01-04T21:38:49.163Z,11.33
2019-01-04T21:41:35.120Z,11.07
2019-01-04T21:44:21.007Z,11.67
2019-01-04T21:47:06.943Z,14.97
2019-01-04T21:49:52.842Z,10.73
2019-01-04T21:52:38.789Z,10.47
2019-01-04T21:55:24.739Z,10.93
2019-01-04T21:58:10.674Z,13.03
2019-01-04T22:03:44.022Z,10.07
2019-01-04T22:14:28.845Z,12.87
2019-01-04T22:17:14.757Z,11.30
2019-01-04T22:20:00.692Z,10.70
2019-01-04T22:25:20.473Z,11.47
2019-01-04T22:28:06.380Z,13.10
2019-01-04T22:30:52.398Z,15.23
2019-01-04T22:33:38.311Z,10.90
2019-01-04T22:36:24.246Z,11.90
2019-01-04T22:39:10.138Z,11.40
2019-01-04T22:41:56.066Z,11.00
2019-01-04T22:44:41.983Z,12.03
2019-01-04T22:47:27.901Z,9.60
2019-01-04T22:50:13.807Z,10.97
2019-01-04T22:52:59.731Z,10.37
2019-01-04T22:55:45.669Z,12.50
2019-01-04T22:58:31.571Z,10.10
2019-01-04T23:04:04.925Z,12.07
2019-01-04T23:06:50.819Z,10.73
2019-01-04T23:12:10.694Z,10.97
2019-01-04T23:14:56.649Z,11.07
2019-01-04T23:17:42.563Z,11.80
2019-01-04T23:20:28.500Z,10.00
2019-01-04T23:23:14.397Z,9.40
2019-01-04T23:26:00.329Z,9.97
2019-01-04T23:28:46.284Z,9.90
2019-01-04T23:31:32.244Z,9.90
2019-01-04T23:34:18.220Z,9.00
2019-01-04T23:37:04.158Z,9.80
2019-01-04T23:39:50.042Z,9.33
2019-01-04T23:50:25.222Z,9.53
2019-01-04T23:53:11.141Z,9.57
2019-01-04T23:55:57.048Z,9.17
